Time;durP1;ratioP1;P1;durP2;ratioP2;P2;SDS_P1;SDS_P2;PMS_P1;PMS_P2;Temp;Humidity;BMP_temperature;BMP_pressure;BME280_temperature;BME280_humidity;BME280_pressure;Samples;Min_cycle;Max_cycle;Signal;HPM_P1;HPM_P2
2021/01/27 00:00:58;;;;;;;10.43;7.00;;;4.80;99.90;;;;;;2079855;28;20096;-75
2021/01/27 00:01:58;;;;;;;8.70;6.80;;;4.80;99.90;;;;;;2071583;28;20477;-77
2021/01/27 00:03:02;;;;;;;12.75;7.07;;;4.80;99.90;;;;;;2071352;28;20105;-77
2021/01/27 00:04:02;;;;;;;11.45;7.57;;;4.80;99.90;;;;;;2080208;28;20096;-75
2021/01/27 00:05:05;;;;;;;12.45;7.30;;;4.80;99.90;;;;;;2079944;28;20025;-75
2021/01/27 00:06:06;;;;;;;11.52;7.53;;;4.80;99.90;;;;;;2079920;28;20484;-77
2021/01/27 00:07:06;;;;;;;7.93;6.72;;;4.80;99.90;;;;;;2080168;28;20029;-77
2021/01/27 00:08:08;;;;;;;10.45;6.57;;;4.80;99.90;;;;;;2080252;28;20022;-75
2021/01/27 00:09:08;;;;;;;7.22;6.10;;;4.80;99.90;;;;;;2080562;28;20026;-74
2021/01/27 00:10:10;;;;;;;8.77;6.22;;;4.80;99.90;;;;;;2080320;28;20028;-77
2021/01/27 00:11:11;;;;;;;8.95;7.15;;;4.80;99.90;;;;;;2078502;28;20729;-76
2021/01/27 00:12:11;;;;;;;11.52;6.63;;;4.80;99.90;;;;;;2080473;28;20047;-76
2021/01/27 00:13:16;;;;;;;13.25;6.88;;;4.80;99.90;;;;;;2080615;28;20084;-76
2021/01/27 00:14:17;;;;;;;8.38;6.93;;;4.80;99.90;;;;;;2080156;28;20515;-76
2021/01/27 00:15:25;;;;;;;9.82;7.30;;;4.80;99.90;;;;;;2080276;28;20033;-74
2021/01/27 00:16:25;;;;;;;11.10;7.07;;;4.80;99.90;;;;;;2080630;28;20021;-77
2021/01/27 00:17:27;;;;;;;14.15;7.28;;;4.70;99.90;;;;;;2071589;28;20056;-76
2021/01/27 00:18:28;;;;;;;10.43;6.95;;;4.80;99.90;;;;;;2071719;28;20038;-75
2021/01/27 00:19:28;;;;;;;13.20;6.85;;;4.80;99.90;;;;;;2071871;28;20076;-75
2021/01/27 00:20:29;;;;;;;10.88;6.30;;;4.70;99.90;;;;;;2071577;28;20057;-76
2021/01/27 00:21:30;;;;;;;19.08;6.93;;;4.70;99.90;;;;;;2071793;28;20093;-76
2021/01/27 00:22:30;;;;;;;7.47;6.68;;;4.70;99.90;;;;;;2080597;28;20020;-75
2021/01/27 00:23:31;;;;;;;9.70;6.10;;;4.70;99.90;;;;;;2072669;28;20022;-75
2021/01/27 00:24:32;;;;;;;11.18;7.00;;;4.70;99.90;;;;;;2071473;28;20022;-77
2021/01/27 00:25:34;;;;;;;11.35;6.47;;;4.70;99.90;;;;;;2071600;28;20029;-76
2021/01/27 00:26:35;;;;;;;13.38;7.22;;;4.70;99.90;;;;;;2081197;28;20017;-75
2021/01/27 00:27:36;;;;;;;12.15;6.63;;;4.70;99.90;;;;;;2072053;28;20424;-78
2021/01/27 00:28:36;;;;;;;8.27;6.05;;;4.70;99.90;;;;;;2063698;28;20145;-77
2021/01/27 00:29:37;;;;;;;10.63;6.22;;;4.70;99.90;;;;;;2072948;28;20470;-76
2021/01/27 00:30:40;;;;;;;8.90;6.55;;;4.70;99.90;;;;;;2081284;28;20029;-76
2021/01/27 00:31:40;;;;;;;11.05;6.45;;;4.70;99.90;;;;;;2081349;28;20028;-76
2021/01/27 00:32:41;;;;;;;8.82;6.40;;;4.70;99.90;;;;;;2072749;28;20073;-78
2021/01/27 00:33:42;;;;;;;9.50;6.25;;;4.70;99.90;;;;;;2072952;28;20382;-75
2021/01/27 00:34:42;;;;;;;8.40;5.70;;;4.70;99.90;;;;;;2072886;28;20449;-78
2021/01/27 00:35:47;;;;;;;7.32;6.13;;;4.70;99.90;;;;;;2072404;28;20097;-76
2021/01/27 00:36:49;;;;;;;10.98;5.97;;;4.70;99.90;;;;;;2072455;28;20058;-77
2021/01/27 00:37:50;;;;;;;9.70;5.72;;;4.70;99.90;;;;;;2064354;28;20590;-77
2021/01/27 00:38:50;;;;;;;7.38;5.50;;;4.70;99.90;;;;;;2072498;28;20030;-76
2021/01/27 00:39:51;;;;;;;8.57;5.90;;;4.70;99.90;;;;;;2081167;28;20101;-78
2021/01/27 00:40:56;;;;;;;8.80;6.00;;;4.70;99.90;;;;;;2071951;28;20030;-77
2021/01/27 00:41:57;;;;;;;8.55;5.72;;;4.70;99.90;;;;;;2072579;28;20028;-76
2021/01/27 00:42:57;;;;;;;8.13;5.60;;;4.70;99.90;;;;;;2080712;28;20032;-75
2021/01/27 00:43:58;;;;;;;6.57;5.22;;;4.70;99.90;;;;;;2080591;28;20025;-74
2021/01/27 00:44:59;;;;;;;9.50;5.38;;;4.70;99.90;;;;;;2081298;28;20021;-75
2021/01/27 00:45:59;;;;;;;6.85;5.63;;;4.70;99.90;;;;;;2080975;28;20037;-74
2021/01/27 00:47:00;;;;;;;7.28;5.70;;;4.70;99.90;;;;;;2080680;28;20017;-75
2021/01/27 00:48:00;;;;;;;9.00;5.90;;;4.70;99.90;;;;;;2080246;28;20116;-75
2021/01/27 00:49:02;;;;;;;8.02;5.85;;;4.70;99.90;;;;;;2081074;28;20033;-76
2021/01/27 00:50:05;;;;;;;8.38;5.65;;;4.70;99.90;;;;;;2080765;28;20025;-73
2021/01/27 00:51:05;;;;;;;11.95;5.57;;;4.70;99.90;;;;;;2080454;28;20029;-76
2021/01/27 00:52:06;;;;;;;9.30;6.30;;;4.70;99.90;;;;;;2081040;28;20473;-75
2021/01/27 00:53:07;;;;;;;11.43;6.75;;;4.70;99.90;;;;;;2081048;28;20033;-76
2021/01/27 00:54:07;;;;;;;7.93;5.25;;;4.70;99.90;;;;;;2080646;28;20029;-76
2021/01/27 00:55:11;;;;;;;5.90;4.85;;;4.70;99.90;;;;;;2080870;28;20369;-76
2021/01/27 00:56:12;;;;;;;9.68;5.70;;;4.70;99.90;;;;;;2080518;28;20026;-75
2021/01/27 00:57:12;;;;;;;7.72;5.60;;;4.70;99.90;;;;;;2080407;28;20115;-77
2021/01/27 00:58:13;;;;;;;7.75;5.57;;;4.70;99.90;;;;;;2080184;28;20026;-76
2021/01/27 00:59:14;;;;;;;6.60;5.53;;;4.70;99.90;;;;;;2080849;28;20040;-75
2021/01/27 01:00:39;;;;;;;8.25;5.68;;;4.70;99.90;;;;;;2080813;28;20033;-76
2021/01/27 01:01:40;;;;;;;9.38;5.18;;;4.70;99.90;;;;;;2080211;28;20068;-74
2021/01/27 01:02:40;;;;;;;8.05;5.80;;;4.70;99.90;;;;;;2080413;28;20022;-75
2021/01/27 01:03:41;;;;;;;7.75;5.95;;;4.70;99.90;;;;;;2080412;28;20025;-75
2021/01/27 01:04:41;;;;;;;7.82;5.70;;;4.70;99.90;;;;;;2080525;28;20419;-74
2021/01/27 01:05:44;;;;;;;9.15;5.45;;;4.70;99.90;;;;;;2079854;28;20022;-76
2021/01/27 01:06:44;;;;;;;7.07;5.53;;;4.70;99.90;;;;;;2070910;28;20513;-76
2021/01/27 01:07:47;;;;;;;10.48;6.05;;;4.70;99.80;;;;;;2071302;28;20025;-76
2021/01/27 01:08:47;;;;;;;9.82;5.63;;;4.70;99.90;;;;;;2070948;28;20026;-77
2021/01/27 01:09:48;;;;;;;7.50;5.55;;;4.70;99.70;;;;;;2062404;28;20591;-75
2021/01/27 01:10:52;;;;;;;8.02;5.55;;;4.60;99.80;;;;;;2071365;28;20018;-75
2021/01/27 01:11:53;;;;;;;8.38;5.75;;;4.60;99.90;;;;;;2079798;28;20083;-75
2021/01/27 01:12:54;;;;;;;8.60;6.35;;;4.60;99.90;;;;;;2079779;28;20021;-74
2021/01/27 01:13:54;;;;;;;9.45;5.82;;;4.70;99.90;;;;;;2078959;28;20034;-76
2021/01/27 01:14:55;;;;;;;9.98;5.97;;;4.70;99.80;;;;;;2079881;28;20037;-77
2021/01/27 01:15:56;;;;;;;11.10;5.20;;;4.70;99.60;;;;;;2070425;28;20022;-78
2021/01/27 01:16:56;;;;;;;14.77;5.95;;;4.70;99.60;;;;;;2070434;28;20420;-77
2021/01/27 01:17:57;;;;;;;6.90;5.05;;;4.70;99.60;;;;;;2079188;28;20072;-78
2021/01/27 01:18:58;;;;;;;6.18;5.15;;;4.70;99.60;;;;;;2079245;28;20036;-76
2021/01/27 01:19:58;;;;;;;8.13;5.70;;;4.70;99.50;;;;;;2079674;28;20021;-76
2021/01/27 01:20:59;;;;;;;8.02;5.38;;;4.70;99.50;;;;;;2079354;28;20060;-77
2021/01/27 01:22:00;;;;;;;8.10;5.72;;;4.70;99.30;;;;;;2070138;28;20113;-78
2021/01/27 01:23:01;;;;;;;9.02;5.65;;;4.70;99.30;;;;;;2071056;28;20397;-77
2021/01/27 01:24:02;;;;;;;6.72;5.32;;;4.70;99.30;;;;;;2078950;28;20051;-79
2021/01/27 01:25:03;;;;;;;6.43;4.72;;;4.70;99.30;;;;;;2070773;28;20030;-77
2021/01/27 01:26:04;;;;;;;7.68;5.30;;;4.70;99.20;;;;;;2070430;28;20034;-75
2021/01/27 01:27:05;;;;;;;6.75;5.30;;;4.70;99.20;;;;;;2069772;28;20100;-78
2021/01/27 01:28:07;;;;;;;7.10;4.82;;;4.70;99.00;;;;;;2069812;28;20088;-77
2021/01/27 01:29:07;;;;;;;6.50;5.05;;;4.70;99.00;;;;;;2070092;28;20520;-75
2021/01/27 01:30:16;;;;;;;5.88;5.13;;;4.70;98.90;;;;;;2079487;28;20049;-76
2021/01/27 01:31:16;;;;;;;8.05;4.93;;;4.70;98.80;;;;;;2079127;28;20109;-76
2021/01/27 01:32:17;;;;;;;7.78;5.22;;;4.70;98.90;;;;;;2070927;28;20042;-76
2021/01/27 01:33:22;;;;;;;11.30;5.45;;;4.70;98.90;;;;;;2070431;28;20037;-76
2021/01/27 01:34:22;;;;;;;8.88;5.60;;;4.70;99.20;;;;;;2079296;28;20108;-77
2021/01/27 01:35:24;;;;;;;6.90;4.95;;;4.70;98.80;;;;;;2070575;28;20030;-76
2021/01/27 01:36:24;;;;;;;9.00;4.95;;;4.70;98.80;;;;;;2070267;28;20036;-76
2021/01/27 01:37:25;;;;;;;7.65;5.22;;;4.70;98.90;;;;;;2078816;28;20116;-76
2021/01/27 01:38:26;;;;;;;9.00;4.85;;;4.70;98.90;;;;;;2079136;28;20140;-78
2021/01/27 01:39:27;;;;;;;9.73;4.93;;;4.70;98.60;;;;;;2070577;28;20482;-74
2021/01/27 01:40:36;;;;;;;6.97;5.15;;;4.70;98.60;;;;;;2070544;28;20021;-76
2021/01/27 01:41:37;;;;;;;6.78;4.72;;;4.70;98.60;;;;;;2070368;28;20022;-75
2021/01/27 01:42:38;;;;;;;7.53;4.63;;;4.70;98.70;;;;;;2071267;28;20570;-77
2021/01/27 01:43:40;;;;;;;5.13;4.20;;;4.70;98.60;;;;;;2079437;28;20024;-75
2021/01/27 01:44:41;;;;;;;7.40;4.82;;;4.60;98.70;;;;;;2079366;28;20040;-77
2021/01/27 01:45:47;;;;;;;6.55;4.90;;;4.60;98.60;;;;;;2079192;28;20029;-75
2021/01/27 01:46:48;;;;;;;5.63;4.70;;;4.60;98.60;;;;;;2079059;28;20400;-76
2021/01/27 01:47:51;;;;;;;9.45;5.53;;;4.70;98.70;;;;;;2078904;28;20231;-75
2021/01/27 01:48:55;;;;;;;6.80;4.95;;;4.60;98.50;;;;;;2079152;28;20025;-76
2021/01/27 01:49:55;;;;;;;6.10;4.95;;;4.60;98.50;;;;;;2079132;28;20017;-77
2021/01/27 01:51:14;;;;;;;8.75;5.13;;;4.60;98.50;;;;;;2079458;28;20504;-74
2021/01/27 01:52:16;;;;;;;15.65;5.35;;;4.70;98.30;;;;;;2070221;28;20030;-77
2021/01/27 01:53:18;;;;;;;5.70;5.18;;;4.60;98.50;;;;;;2070776;28;20113;-75
2021/01/27 01:54:33;;;;;;;6.60;4.85;;;4.60;98.40;;;;;;2079383;28;20061;-77
2021/01/27 01:55:34;;;;;;;7.72;5.30;;;4.60;98.20;;;;;;2079353;28;20022;-75
2021/01/27 01:56:37;;;;;;;9.05;5.32;;;4.60;98.30;;;;;;2079300;28;20024;-76
2021/01/27 01:57:38;;;;;;;7.55;5.05;;;4.60;98.30;;;;;;2069688;28;20018;-75
2021/01/27 01:58:40;;;;;;;7.85;4.30;;;4.60;98.20;;;;;;2070591;28;20034;-75
2021/01/27 01:59:51;;;;;;;10.35;5.53;;;4.60;98.20;;;;;;2079117;28;20029;-76
2021/01/27 02:00:57;;;;;;;5.53;4.95;;;4.60;98.00;;;;;;2079490;28;20476;-77
2021/01/27 02:02:04;;;;;;;10.02;4.90;;;4.60;98.00;;;;;;2070337;28;20045;-77
2021/01/27 02:03:09;;;;;;;6.55;4.57;;;4.60;98.10;;;;;;2063348;28;20037;-74
2021/01/27 02:04:10;;;;;;;8.65;4.35;;;4.60;98.20;;;;;;2070687;28;20030;-74
2021/01/27 02:05:29;;;;;;;6.85;4.85;;;4.60;98.00;;;;;;2079393;28;20094;-75
2021/01/27 02:06:30;;;;;;;8.35;4.85;;;4.60;97.40;;;;;;2079179;28;20366;-75
2021/01/27 02:07:30;;;;;;;8.30;5.13;;;4.60;98.00;;;;;;2079042;28;20032;-75
2021/01/27 02:08:32;;;;;;;9.82;4.68;;;4.60;98.10;;;;;;2079109;28;20022;-74
2021/01/27 02:09:32;;;;;;;5.10;4.15;;;4.60;98.10;;;;;;2063824;28;20082;-76
2021/01/27 02:10:34;;;;;;;7.80;4.60;;;4.60;98.10;;;;;;2061995;28;20094;-76
2021/01/27 02:11:40;;;;;;;5.55;4.45;;;4.60;98.00;;;;;;2070214;28;20050;-77
2021/01/27 02:13:03;;;;;;;7.78;4.85;;;4.60;97.60;;;;;;2078635;28;20519;-77
2021/01/27 02:14:23;;;;;;;5.30;4.20;;;4.60;97.60;;;;;;2078487;28;20359;-77
2021/01/27 02:15:41;;;;;;;7.03;4.38;;;4.60;97.50;;;;;;2079586;28;20017;-77
2021/01/27 02:17:04;;;;;;;5.65;4.47;;;4.50;97.70;;;;;;2070467;28;20633;-76
2021/01/27 02:18:05;;;;;;;8.57;4.70;;;4.50;97.80;;;;;;2073426;28;20029;-75
2021/01/27 02:19:30;;;;;;;6.72;5.05;;;4.50;98.10;;;;;;2079530;28;20057;-77
2021/01/27 02:20:39;;;;;;;6.35;5.18;;;4.50;98.00;;;;;;2079394;28;20029;-76
2021/01/27 02:22:19;;;;;;;5.88;4.60;;;4.50;98.00;;;;;;2079252;28;20438;-77
2021/01/27 02:23:37;;;;;;;7.18;4.63;;;4.50;97.80;;;;;;2071546;28;20054;-76
2021/01/27 02:25:32;;;;;;;6.03;5.07;;;4.50;98.00;;;;;;2079670;28;20611;-77
2021/01/27 02:26:44;;;;;;;8.60;4.47;;;4.40;97.00;;;;;;2078996;28;20051;-78
2021/01/27 02:28:04;;;;;;;6.90;5.32;;;4.40;97.90;;;;;;2079370;28;20045;-76
2021/01/27 02:29:14;;;;;;;7.03;4.63;;;4.40;98.00;;;;;;2079930;28;20071;-75
2021/01/27 02:30:33;;;;;;;6.30;4.95;;;4.40;98.10;;;;;;2079635;28;20068;-76
2021/01/27 02:31:45;;;;;;;7.30;4.50;;;4.40;98.20;;;;;;2079478;28;20018;-75
2021/01/27 02:33:19;;;;;;;5.47;4.80;;;4.40;97.80;;;;;;2079624;28;20378;-75
2021/01/27 02:34:20;;;;;;;7.15;4.68;;;4.40;97.20;;;;;;2032552;28;20051;-74
2021/01/27 02:35:33;;;;;;;5.70;4.25;;;4.40;98.00;;;;;;2070847;28;20014;-76
2021/01/27 02:36:50;;;;;;;5.97;4.63;;;4.40;97.80;;;;;;2070245;28;20037;-75
2021/01/27 02:38:13;;;;;;;6.47;4.45;;;4.40;97.40;;;;;;2070514;28;20034;-76
2021/01/27 02:39:20;;;;;;;6.47;4.00;;;4.40;97.30;;;;;;2067049;28;20417;-75
2021/01/27 02:40:31;;;;;;;6.88;4.53;;;4.40;97.70;;;;;;2080040;28;20021;-73
2021/01/27 02:41:56;;;;;;;5.80;4.72;;;4.40;97.60;;;;;;2081129;28;20013;-75
2021/01/27 02:43:01;;;;;;;7.10;4.60;;;4.30;97.30;;;;;;2081052;28;20018;-77
2021/01/27 02:44:09;;;;;;;6.18;4.85;;;4.30;97.50;;;;;;2081025;28;20036;-74
2021/01/27 02:45:21;;;;;;;5.55;4.63;;;4.40;97.90;;;;;;2080646;28;20057;-76
2021/01/27 02:46:31;;;;;;;7.90;4.57;;;4.30;97.30;;;;;;2080729;28;20507;-77
2021/01/27 02:47:44;;;;;;;5.88;4.45;;;4.30;97.40;;;;;;2080467;28;20029;-73
2021/01/27 02:49:20;;;;;;;8.48;4.97;;;4.30;97.20;;;;;;2071794;28;20057;-77
2021/01/27 02:50:28;;;;;;;6.85;4.40;;;4.30;97.10;;;;;;2058832;28;20408;-74
2021/01/27 02:52:00;;;;;;;6.80;4.20;;;4.30;97.20;;;;;;2078168;28;20037;-77
2021/01/27 02:53:07;;;;;;;6.57;4.65;;;4.30;97.00;;;;;;2081071;28;20611;-75
2021/01/27 02:54:18;;;;;;;6.63;4.55;;;4.30;97.40;;;;;;2080696;28;20029;-73
2021/01/27 02:55:35;;;;;;;7.13;4.45;;;4.30;97.50;;;;;;2063829;28;20019;-79
2021/01/27 02:56:50;;;;;;;8.27;4.15;;;4.30;97.00;;;;;;2064581;28;20046;-75
2021/01/27 02:58:43;;;;;;;6.15;4.60;;;4.30;97.20;;;;;;2065282;28;20101;-75
2021/01/27 03:00:00;;;;;;;6.47;4.70;;;4.20;96.80;;;;;;2069337;28;20049;-74
2021/01/27 03:01:10;;;;;;;6.22;4.63;;;4.20;97.20;;;;;;2072480;28;20056;-77
2021/01/27 03:02:18;;;;;;;6.75;4.47;;;4.20;97.50;;;;;;2074942;28;20098;-76
2021/01/27 03:03:25;;;;;;;10.88;4.63;;;4.20;97.50;;;;;;2082481;28;20508;-75
2021/01/27 03:04:35;;;;;;;5.40;4.15;;;4.20;97.50;;;;;;2082249;28;20484;-77
2021/01/27 03:05:41;;;;;;;9.10;4.97;;;4.30;97.40;;;;;;2073817;28;20018;-76
2021/01/27 03:06:43;;;;;;;6.35;4.07;;;4.30;97.60;;;;;;2073455;28;20022;-77
2021/01/27 03:07:49;;;;;;;6.70;4.85;;;4.20;97.60;;;;;;2073561;28;20033;-77
2021/01/27 03:09:19;;;;;;;6.15;4.40;;;4.30;97.70;;;;;;2074373;28;20085;-76
2021/01/27 03:10:25;;;;;;;10.35;4.07;;;4.20;97.20;;;;;;2075253;28;20040;-75
2021/01/27 03:11:32;;;;;;;5.45;4.13;;;4.20;97.80;;;;;;2073568;28;20030;-76
2021/01/27 03:12:33;;;;;;;6.78;4.53;;;4.30;97.90;;;;;;2074474;28;20022;-77
2021/01/27 03:13:35;;;;;;;7.15;4.90;;;4.30;97.90;;;;;;2082468;28;20489;-75
2021/01/27 03:14:36;;;;;;;6.95;4.68;;;4.30;98.00;;;;;;2082306;28;20018;-74
2021/01/27 03:15:40;;;;;;;5.15;4.10;;;4.30;98.00;;;;;;2082089;28;20041;-76
2021/01/27 03:16:47;;;;;;;8.00;4.40;;;4.30;97.90;;;;;;2073422;28;20140;-75
2021/01/27 03:17:54;;;;;;;4.70;4.20;;;4.30;98.00;;;;;;2074369;28;20112;-77
2021/01/27 03:19:03;;;;;;;5.95;4.10;;;4.30;98.10;;;;;;2073513;28;20049;-76
2021/01/27 03:20:09;;;;;;;5.70;4.15;;;4.30;98.10;;;;;;2074696;28;20466;-76
2021/01/27 03:21:17;;;;;;;5.47;4.07;;;4.30;98.20;;;;;;2082608;28;20027;-75
2021/01/27 03:22:21;;;;;;;5.28;4.78;;;4.30;98.10;;;;;;2073898;28;20084;-75
2021/01/27 03:23:31;;;;;;;6.53;3.80;;;4.30;98.10;;;;;;2066048;28;20102;-78
2021/01/27 03:24:42;;;;;;;5.47;4.05;;;4.30;98.10;;;;;;2074798;28;20469;-74
2021/01/27 03:25:54;;;;;;;6.90;3.95;;;4.30;98.10;;;;;;2082493;28;20021;-77
2021/01/27 03:27:06;;;;;;;7.35;3.55;;;4.30;98.20;;;;;;2081928;28;20021;-74
2021/01/27 03:28:47;;;;;;;4.95;3.47;;;4.20;98.20;;;;;;2073124;28;20082;-76
2021/01/27 03:29:53;;;;;;;5.82;3.83;;;4.20;98.00;;;;;;2078991;28;20039;-75
2021/01/27 03:30:55;;;;;;;4.78;3.35;;;4.20;98.60;;;;;;2082379;28;20069;-74
2021/01/27 03:31:59;;;;;;;6.15;3.88;;;4.10;98.40;;;;;;2082078;28;20370;-75
2021/01/27 03:33:17;;;;;;;4.00;3.60;;;4.10;98.40;;;;;;2082217;28;20076;-76
2021/01/27 03:34:24;;;;;;;4.78;3.60;;;4.20;98.50;;;;;;2082116;28;20056;-75
2021/01/27 03:35:37;;;;;;;3.65;3.30;;;4.20;98.60;;;;;;2080686;28;20473;-73
2021/01/27 03:36:56;;;;;;;5.85;3.50;;;4.20;98.60;;;;;;2082199;28;20021;-76
2021/01/27 03:38:04;;;;;;;4.97;3.30;;;4.20;98.40;;;;;;2082023;28;20034;-76
2021/01/27 03:39:06;;;;;;;5.63;3.58;;;4.20;98.50;;;;;;2082588;28;20489;-75
2021/01/27 03:40:09;;;;;;;5.75;4.00;;;4.20;98.60;;;;;;2073536;28;20112;-76
2021/01/27 03:41:34;;;;;;;5.38;3.70;;;4.20;98.60;;;;;;2073998;28;20072;-75
2021/01/27 03:43:01;;;;;;;5.95;3.63;;;4.20;98.20;;;;;;2082345;28;20477;-76
2021/01/27 03:44:11;;;;;;;7.00;3.30;;;4.20;98.50;;;;;;2082129;28;20040;-76
2021/01/27 03:45:14;;;;;;;3.25;2.95;;;4.10;98.50;;;;;;2082297;28;20025;-76
2021/01/27 03:46:56;;;;;;;7.05;3.50;;;4.10;98.60;;;;;;2082054;28;20030;-76
2021/01/27 03:48:22;;;;;;;4.25;3.65;;;4.10;98.60;;;;;;2054287;28;20131;-77
2021/01/27 03:50:04;;;;;;;6.72;3.30;;;4.10;98.80;;;;;;2082065;28;20017;-75
2021/01/27 03:51:05;;;;;;;4.78;3.38;;;4.00;98.50;;;;;;2065715;28;20116;-76
2021/01/27 03:52:16;;;;;;;4.60;3.47;;;4.00;98.80;;;;;;2065120;28;20482;-77
2021/01/27 03:53:18;;;;;;;3.92;3.40;;;4.10;98.90;;;;;;2072884;28;20548;-76
2021/01/27 03:54:19;;;;;;;4.40;3.35;;;4.10;99.00;;;;;;2073183;28;20473;-76
2021/01/27 03:55:23;;;;;;;4.40;3.30;;;4.10;99.10;;;;;;2082224;28;20026;-75
2021/01/27 03:56:47;;;;;;;5.93;3.47;;;4.10;99.10;;;;;;2081910;28;20032;-76
2021/01/27 03:58:00;;;;;;;9.45;4.10;;;4.10;98.70;;;;;;2081508;28;20155;-75
2021/01/27 03:59:00;;;;;;;4.68;3.42;;;4.10;98.70;;;;;;2082040;28;20033;-76
2021/01/27 04:00:06;;;;;;;4.38;3.97;;;4.10;98.90;;;;;;2081690;28;20029;-77
2021/01/27 04:01:10;;;;;;;5.00;3.35;;;4.20;99.00;;;;;;2081674;28;20109;-75
2021/01/27 04:02:18;;;;;;;4.13;3.20;;;4.20;98.90;;;;;;2081117;28;20025;-76
2021/01/27 04:03:22;;;;;;;4.72;3.30;;;4.20;98.90;;;;;;2072420;28;20053;-76
2021/01/27 04:04:25;;;;;;;4.20;3.72;;;4.20;98.90;;;;;;2064996;28;20056;-75
2021/01/27 04:05:25;;;;;;;6.20;3.50;;;4.20;98.90;;;;;;2073412;28;20117;-77
2021/01/27 04:06:26;;;;;;;5.15;3.38;;;4.20;98.90;;;;;;2073310;28;20022;-77
2021/01/27 04:07:27;;;;;;;4.57;3.50;;;4.20;98.90;;;;;;2074917;28;20022;-78
2021/01/27 04:08:27;;;;;;;4.15;3.65;;;4.20;98.80;;;;;;2071874;28;20026;-76
2021/01/27 04:09:28;;;;;;;3.97;3.60;;;4.30;98.80;;;;;;2072283;28;20055;-76
2021/01/27 04:10:28;;;;;;;5.25;4.00;;;4.20;98.90;;;;;;2079219;28;20380;-74
2021/01/27 04:11:29;;;;;;;7.18;3.80;;;4.30;98.90;;;;;;2080282;28;20105;-75
2021/01/27 04:12:29;;;;;;;4.13;3.58;;;4.30;98.90;;;;;;2081114;28;20030;-74
2021/01/27 04:13:30;;;;;;;6.10;4.43;;;4.30;98.90;;;;;;2071677;28;20113;-76
2021/01/27 04:14:31;;;;;;;4.45;3.72;;;4.30;98.90;;;;;;2072086;28;20022;-73
2021/01/27 04:15:31;;;;;;;4.03;3.53;;;4.30;98.90;;;;;;2072076;28;20053;-74
2021/01/27 04:16:33;;;;;;;5.30;4.30;;;4.30;98.90;;;;;;2080829;28;20052;-76
2021/01/27 04:17:34;;;;;;;5.35;3.65;;;4.30;99.10;;;;;;2080274;28;20021;-78
2021/01/27 04:20:31;;;;;;;5.25;3.20;;;4.30;98.80;;;;;;2070664;28;20017;-74
2021/01/27 04:21:32;;;;;;;4.45;3.22;;;4.30;99.10;;;;;;2079884;28;20025;-76
2021/01/27 04:22:33;;;;;;;4.63;3.53;;;4.30;99.10;;;;;;2080565;28;20017;-76
2021/01/27 04:23:33;;;;;;;4.65;3.70;;;4.30;99.30;;;;;;2079131;28;20032;-75
2021/01/27 04:24:34;;;;;;;5.47;3.15;;;4.20;99.10;;;;;;2079756;28;20029;-77
2021/01/27 04:25:34;;;;;;;5.28;3.47;;;4.30;99.20;;;;;;2080608;28;20488;-77
2021/01/27 04:26:35;;;;;;;6.50;3.40;;;4.30;99.20;;;;;;2080265;28;20377;-75
2021/01/27 04:27:36;;;;;;;4.55;3.40;;;4.30;99.10;;;;;;2079917;28;20433;-75
2021/01/27 04:28:37;;;;;;;3.85;3.40;;;4.30;99.10;;;;;;2078265;28;20022;-76
2021/01/27 04:29:37;;;;;;;5.78;3.25;;;4.30;99.20;;;;;;2080689;28;20025;-77
2021/01/27 04:30:38;;;;;;;4.93;3.72;;;4.30;99.20;;;;;;2071668;28;20026;-76
2021/01/27 04:31:39;;;;;;;5.10;3.75;;;4.30;99.20;;;;;;2068950;28;20026;-78
2021/01/27 04:32:39;;;;;;;4.75;3.55;;;4.30;99.60;;;;;;2072545;28;20022;-77
2021/01/27 04:33:40;;;;;;;4.30;3.05;;;4.30;99.20;;;;;;2079903;28;20076;-75
2021/01/27 04:34:40;;;;;;;3.85;3.47;;;4.30;99.20;;;;;;2080143;28;20096;-75
2021/01/27 04:35:41;;;;;;;4.93;3.10;;;4.30;99.30;;;;;;2071824;28;20030;-76
2021/01/27 04:36:41;;;;;;;5.05;3.58;;;4.30;99.20;;;;;;2070451;28;20726;-75
2021/01/27 04:37:42;;;;;;;5.13;3.10;;;4.30;99.10;;;;;;2079472;28;20079;-75
2021/01/27 04:38:43;;;;;;;5.85;3.63;;;4.30;99.20;;;;;;2078764;28;20040;-75
2021/01/27 04:39:43;;;;;;;6.63;3.50;;;4.30;99.20;;;;;;2076872;28;20023;-76
2021/01/27 04:40:46;;;;;;;11.00;4.35;;;4.30;99.20;;;;;;2070829;28;20044;-77
2021/01/27 04:41:47;;;;;;;5.70;3.03;;;4.30;99.30;;;;;;2079878;28;20067;-75
2021/01/27 04:42:49;;;;;;;2.92;2.67;;;4.30;99.40;;;;;;2079181;28;20078;-75
2021/01/27 04:43:52;;;;;;;3.50;3.03;;;4.30;99.40;;;;;;2070977;28;20053;-74
2021/01/27 04:44:56;;;;;;;5.53;3.08;;;4.30;99.40;;;;;;2070358;28;20022;-77
2021/01/27 04:46:18;;;;;;;3.83;2.90;;;4.30;99.40;;;;;;2070867;28;20030;-74
2021/01/27 04:47:30;;;;;;;5.07;3.22;;;4.30;99.40;;;;;;2073498;28;20036;-76
2021/01/27 04:48:55;;;;;;;4.43;3.00;;;4.30;99.40;;;;;;2078903;28;20040;-75
2021/01/27 04:50:06;;;;;;;3.50;3.08;;;4.30;99.30;;;;;;2059827;28;20049;-75
2021/01/27 04:51:13;;;;;;;4.28;2.70;;;4.30;99.40;;;;;;2075197;28;20761;-79
2021/01/27 04:52:36;;;;;;;4.60;3.25;;;4.30;99.40;;;;;;2079665;28;20389;-74
2021/01/27 04:53:50;;;;;;;4.43;3.30;;;4.30;99.40;;;;;;2079424;28;20489;-74
2021/01/27 04:55:16;;;;;;;4.43;2.97;;;4.30;99.60;;;;;;2079407;28;20021;-76
2021/01/27 04:56:23;;;;;;;3.53;2.72;;;4.30;99.60;;;;;;2079095;28;20083;-75
2021/01/27 04:57:33;;;;;;;4.45;2.65;;;4.30;99.70;;;;;;2078809;28;20033;-76
2021/01/27 04:58:50;;;;;;;6.00;2.83;;;4.30;99.40;;;;;;2079065;28;20028;-77
2021/01/27 05:00:06;;;;;;;6.25;3.15;;;4.30;99.30;;;;;;2079378;28;20400;-74
2021/01/27 05:01:42;;;;;;;4.05;3.00;;;4.30;99.40;;;;;;2079142;28;20060;-76
2021/01/27 05:02:52;;;;;;;3.45;2.80;;;4.30;99.50;;;;;;2076125;28;20021;-75
2021/01/27 05:04:13;;;;;;;5.75;3.00;;;4.30;99.60;;;;;;2070071;28;20025;-78
2021/01/27 05:05:18;;;;;;;4.70;2.92;;;4.30;99.60;;;;;;2073877;28;20104;-75
2021/01/27 05:06:30;;;;;;;3.63;3.13;;;4.30;99.60;;;;;;2070415;28;20101;-74
2021/01/27 05:08:09;;;;;;;4.88;3.13;;;4.30;99.90;;;;;;2071849;28;20029;-74
2021/01/27 05:09:39;;;;;;;3.33;2.50;;;4.30;99.80;;;;;;2079238;28;20044;-78
2021/01/27 05:10:49;;;;;;;3.67;2.65;;;4.30;99.80;;;;;;2078920;28;20025;-77
2021/01/27 05:11:52;;;;;;;4.78;2.88;;;4.30;99.80;;;;;;2070908;28;20121;-76
2021/01/27 05:12:59;;;;;;;3.47;3.08;;;4.30;99.90;;;;;;2071047;28;20080;-76
2021/01/27 05:14:02;;;;;;;4.18;2.97;;;4.40;99.90;;;;;;2070479;28;20614;-76
2021/01/27 05:15:05;;;;;;;4.78;2.90;;;4.40;99.80;;;;;;2071034;28;20034;-77
2021/01/27 05:16:19;;;;;;;2.95;2.60;;;4.40;99.90;;;;;;2079163;28;20032;-77
2021/01/27 05:17:21;;;;;;;4.47;2.78;;;4.40;99.90;;;;;;2079046;28;20092;-78
2021/01/27 05:18:22;;;;;;;5.35;3.20;;;4.40;99.90;;;;;;2078765;28;20026;-77
2021/01/27 05:19:23;;;;;;;3.28;2.88;;;4.40;99.70;;;;;;2079319;28;20060;-77
2021/01/27 05:20:24;;;;;;;3.00;2.53;;;4.40;99.70;;;;;;2078864;28;20100;-77
2021/01/27 05:21:30;;;;;;;5.40;3.13;;;4.50;99.70;;;;;;2080192;28;20039;-77
2021/01/27 05:22:31;;;;;;;4.10;3.10;;;4.50;99.60;;;;;;2070212;28;20025;-76
2021/01/27 05:23:32;;;;;;;3.10;2.80;;;4.50;99.60;;;;;;2070180;28;20022;-76
2021/01/27 05:24:33;;;;;;;6.47;3.13;;;4.50;99.60;;;;;;2078979;28;20029;-77
2021/01/27 05:25:44;;;;;;;4.53;2.97;;;4.50;99.50;;;;;;2079325;28;20029;-75
2021/01/27 05:27:13;;;;;;;4.93;3.33;;;4.50;99.60;;;;;;2078229;28;20083;-78
2021/01/27 05:28:21;;;;;;;3.50;2.90;;;4.50;99.50;;;;;;2070187;28;20029;-77
2021/01/27 05:29:31;;;;;;;3.88;3.20;;;4.40;99.80;;;;;;2070334;28;20022;-76
2021/01/27 05:30:44;;;;;;;3.00;2.65;;;4.40;99.70;;;;;;2070245;28;20021;-76
2021/01/27 05:32:10;;;;;;;3.95;3.00;;;4.40;99.80;;;;;;2072642;28;20105;-77
2021/01/27 05:33:10;;;;;;;4.22;2.90;;;4.40;99.90;;;;;;2069568;28;20847;-77
2021/01/27 05:34:31;;;;;;;3.97;3.03;;;4.40;99.90;;;;;;2070298;28;20044;-74
2021/01/27 05:35:36;;;;;;;3.65;2.80;;;4.40;99.90;;;;;;2079107;28;20025;-76
2021/01/27 05:36:37;;;;;;;5.38;3.47;;;4.40;99.80;;;;;;2078662;28;21125;-75
2021/01/27 05:37:38;;;;;;;4.18;2.83;;;4.40;99.90;;;;;;2078895;28;20034;-77
2021/01/27 05:38:39;;;;;;;3.42;3.03;;;4.40;99.90;;;;;;2078577;28;20025;-75
2021/01/27 05:39:41;;;;;;;3.88;3.08;;;4.40;99.90;;;;;;2076933;28;20030;-76
2021/01/27 05:40:41;;;;;;;2.70;2.50;;;4.50;99.90;;;;;;2070306;28;20473;-76
2021/01/27 05:41:43;;;;;;;6.55;3.00;;;4.50;99.90;;;;;;2078617;28;20680;-75
2021/01/27 05:42:44;;;;;;;5.15;3.70;;;4.40;99.90;;;;;;2079004;28;20037;-75
2021/01/27 05:43:48;;;;;;;3.08;2.65;;;4.40;99.90;;;;;;2078888;28;20025;-76
2021/01/27 05:44:52;;;;;;;5.25;2.92;;;4.50;99.90;;;;;;2078627;28;20049;-75
2021/01/27 05:45:53;;;;;;;3.47;2.53;;;4.50;99.90;;;;;;2078649;28;20029;-75
2021/01/27 05:46:54;;;;;;;3.85;2.35;;;4.40;99.80;;;;;;2078636;28;20460;-74
2021/01/27 05:47:56;;;;;;;3.45;2.47;;;4.50;99.80;;;;;;2079155;28;20104;-74
2021/01/27 05:48:57;;;;;;;4.57;2.67;;;4.50;99.90;;;;;;2078885;28;20029;-76
2021/01/27 05:49:58;;;;;;;3.78;2.53;;;4.50;99.80;;;;;;2078832;28;20100;-74
2021/01/27 05:51:01;;;;;;;3.33;2.85;;;4.50;99.70;;;;;;2078909;28;20647;-76
2021/01/27 05:52:13;;;;;;;3.70;2.78;;;4.50;99.80;;;;;;2079066;28;20053;-76
2021/01/27 05:53:18;;;;;;;4.45;3.13;;;4.40;99.90;;;;;;2079106;28;20193;-75